createdAt,value
2019-03-27T05:07:15.566Z,77.10
2019-03-27T05:09:47.676Z,77.70
2019-03-27T05:18:39.472Z,99.50
2019-03-27T05:33:10.236Z,76.50
2019-03-27T05:35:46.783Z,75.60
2019-03-27T05:38:18.805Z,74.90
2019-03-27T05:40:52.472Z,74.20
2019-03-27T05:43:24.540Z,73.50
2019-03-27T05:45:56.676Z,72.80
2019-03-27T05:48:28.670Z,71.90
2019-03-27T05:51:00.589Z,71.00
2019-03-27T05:53:32.754Z,70.10
2019-03-27T05:56:05.463Z,69.30
2019-03-27T05:58:37.783Z,68.30
2019-03-27T06:01:10.070Z,67.50
2019-03-27T06:03:41.968Z,66.80
2019-03-27T06:06:15.223Z,66.10
2019-03-27T06:11:43.671Z,64.30
2019-03-27T06:14:15.789Z,62.40
2019-03-27T06:16:47.742Z,62.10
2019-03-27T06:44:11.652Z,81.40
2019-03-27T06:46:49.177Z,64.30
2019-03-27T06:49:21.450Z,65.10
2019-03-27T06:56:57.473Z,71.60
2019-03-27T06:59:32.185Z,52.60
2019-03-27T07:02:05.461Z,53.60
2019-03-27T07:04:43.497Z,52.60
2019-03-27T07:07:18.933Z,52.20
2019-03-27T07:09:55.857Z,51.90
2019-03-27T07:12:31.517Z,51.50
2019-03-27T07:22:40.045Z,49.70
2019-03-27T09:31:07.713Z,39.00
2019-03-27T09:36:43.380Z,38.30
2019-03-27T09:39:22.472Z,38.10
2019-03-27T09:41:54.667Z,38.70
2019-03-27T09:47:34.457Z,39.10
2019-03-27T09:50:06.358Z,39.70
2019-03-27T09:52:39.617Z,40.60
2019-03-27T09:55:12.036Z,40.30
2019-03-27T09:57:44.143Z,40.50
2019-03-27T10:00:19.297Z,40.80
2019-03-27T10:02:51.197Z,41.20
2019-03-27T10:05:23.256Z,41.10
2019-03-27T10:07:55.105Z,41.00
2019-03-27T10:10:27.233Z,40.80
2019-03-27T10:12:59.110Z,40.70
2019-03-27T10:15:31.000Z,40.80
2019-03-27T17:32:14.115Z,66.70
2019-03-27T17:34:45.954Z,66.90
2019-03-27T17:37:19.031Z,67.20
2019-03-27T17:39:50.944Z,67.60
2019-03-27T17:42:23.131Z,67.70
2019-03-27T17:44:55.132Z,67.90
2019-03-27T17:47:27.130Z,68.10
2019-03-27T17:49:59.079Z,68.30
2019-03-27T17:52:31.228Z,68.40
2019-03-27T17:55:03.576Z,68.50
2019-03-27T17:57:35.842Z,68.80
2019-03-27T18:00:10.275Z,69.00
2019-03-27T18:02:42.405Z,69.20
2019-03-27T18:05:15.570Z,69.30
2019-03-27T18:07:47.992Z,69.50
2019-03-27T18:10:19.926Z,69.70
2019-03-27T18:12:52.233Z,69.90
2019-03-27T18:15:24.676Z,70.20
2019-03-27T18:17:56.627Z,71.00
2019-03-27T18:20:43.814Z,70.30
2019-03-27T18:23:18.830Z,70.50
2019-03-27T18:25:51.158Z,70.50
2019-03-27T18:28:23.325Z,70.70
2019-03-27T18:30:55.267Z,71.00
2019-03-27T18:33:27.840Z,71.10
2019-03-27T18:35:59.700Z,71.40
2019-03-27T18:38:32.878Z,71.40
2019-03-27T18:41:05.795Z,71.40
2019-03-27T18:43:40.019Z,71.60
2019-03-27T18:46:12.177Z,71.80
2019-03-27T18:48:44.841Z,71.90
2019-03-27T18:51:22.282Z,72.00
2019-03-27T18:53:59.956Z,72.00
2019-03-27T18:56:32.141Z,72.20
2019-03-27T18:59:05.479Z,72.10
2019-03-27T19:01:38.138Z,72.20
2019-03-27T19:04:10.236Z,72.10
2019-03-27T19:06:43.674Z,72.20
2019-03-27T19:09:16.599Z,72.30
2019-03-27T19:11:50.548Z,72.40
2019-03-27T19:14:28.383Z,72.50
2019-03-27T19:17:00.843Z,72.60
2019-03-27T19:19:32.961Z,72.50
2019-03-27T19:22:05.040Z,72.60
2019-03-27T19:24:44.885Z,72.80
2019-03-27T19:27:16.719Z,73.10
2019-03-27T19:29:49.228Z,73.30
2019-03-27T19:32:21.424Z,73.50
2019-03-27T19:34:54.176Z,73.50
2019-03-27T19:37:26.288Z,73.60
2019-03-27T19:40:00.987Z,73.90
2019-03-27T19:42:31.961Z,73.90
2019-03-27T19:45:04.832Z,74.10
2019-03-27T19:47:37.269Z,74.10
2019-03-27T19:50:10.145Z,74.30
2019-03-27T19:52:43.148Z,74.60
2019-03-27T19:55:15.143Z,73.90
2019-03-27T19:57:47.180Z,75.20
2019-03-27T20:00:20.645Z,75.20
2019-03-27T20:02:52.659Z,75.30
2019-03-27T20:05:25.647Z,75.60
2019-03-27T20:08:00.339Z,76.60
2019-03-27T20:10:34.303Z,77.20
2019-03-27T20:13:09.169Z,77.70
2019-03-27T20:15:41.713Z,78.00
2019-03-27T20:18:13.779Z,78.20
2019-03-27T20:20:46.153Z,78.10
2019-03-27T20:23:18.254Z,78.20
2019-03-27T20:25:52.292Z,78.10
2019-03-27T20:28:26.167Z,77.80
2019-03-27T20:30:58.452Z,77.90
2019-03-27T20:33:32.420Z,77.60
2019-03-27T20:36:06.282Z,77.50
2019-03-27T20:38:40.219Z,77.20
2019-03-27T20:41:18.834Z,77.00
2019-03-27T20:43:52.797Z,76.70
2019-03-27T20:46:29.136Z,75.50
2019-03-27T20:48:59.271Z,75.40
2019-03-27T20:51:33.064Z,75.20
2019-03-27T20:54:15.893Z,75.30
2019-03-27T20:56:48.665Z,75.10
2019-03-27T20:59:21.149Z,75.10
2019-03-27T21:01:54.067Z,75.00
2019-03-27T21:04:31.839Z,75.00
2019-03-27T21:07:05.590Z,75.00
2019-03-27T21:09:37.648Z,75.00
2019-03-27T21:12:09.734Z,74.90
2019-03-27T21:14:42.063Z,75.00
2019-03-27T21:17:14.277Z,74.90
2019-03-27T21:19:46.452Z,74.90
2019-03-27T21:22:18.433Z,75.00
2019-03-27T21:24:50.546Z,75.00
2019-03-27T21:27:23.540Z,75.00
2019-03-27T21:29:55.548Z,75.10
2019-03-27T21:32:27.537Z,76.10
2019-03-27T21:35:00.398Z,75.20
2019-03-27T21:37:32.895Z,76.20
2019-03-27T21:40:06.018Z,76.30
2019-03-27T21:42:38.237Z,76.40
2019-03-27T21:45:10.874Z,76.30
2019-03-27T21:47:43.176Z,76.50
2019-03-27T21:50:15.332Z,76.50
2019-03-27T21:53:00.013Z,76.50
2019-03-27T21:55:22.805Z,76.50
2019-03-27T21:57:56.274Z,76.40
2019-03-27T22:00:47.514Z,76.50
2019-03-27T22:03:19.796Z,76.40
2019-03-27T22:05:51.993Z,76.40
2019-03-27T22:08:23.998Z,76.50
2019-03-27T22:10:56.005Z,76.40
2019-03-27T22:13:27.948Z,76.40
2019-03-27T22:15:59.967Z,76.40
2019-03-27T22:18:33.552Z,76.50
2019-03-27T22:21:05.864Z,76.50
2019-03-27T22:23:39.128Z,76.50
2019-03-27T22:26:11.007Z,76.50
2019-03-27T22:35:31.087Z,76.40
2019-03-27T22:41:04.020Z,76.50
2019-03-27T22:43:35.985Z,76.40
2019-03-27T22:46:08.169Z,76.60
2019-03-27T22:48:40.114Z,76.60
2019-03-27T22:51:13.433Z,76.70
2019-03-27T22:53:45.661Z,76.30
2019-03-27T22:56:18.359Z,76.90
2019-03-27T22:59:07.655Z,76.80
2019-03-27T23:01:46.098Z,76.90
